Latest Weather Observations for Cape Nelson

IDV60801

Issued at 8:35 pm EDT Sunday 23 November 2014 (issued every 30 minutes, with the page automatically refreshed every 10 minutes)

About weather observations | Map of weather stations | Latest weather observations for VIC | Other Formats
Station Details ID: 090184 Name: CAPE NELSON LIGHTHOUSE Lat: -38.43 Lon: 141.54 Height: 45.4 m
Data from the previous 72 hours. | See also: Recent months at Cape Nelson
Date/Time
EDT
Temp
°C
App
Temp
°C
Dew
Point
Rel
Hum
%
Delta-T
°C
Wind Press
QNH
hPa
Press
MSL
hPa
Rain
since 9 am
mm
Dir
 
Spd
km/h
Gust
km/h
Spd
kts
Gust
kts
23/08:30pm 15.4 14.9 12.0 80 1.9 N 6 9 3 5 1012.7 1012.6 0.0
23/08:00pm 15.8 16.2 12.4 80 1.9 SSW 2 9 1 5 1012.2 1012.1 0.0
23/07:30pm 16.2 16.2 12.4 78 2.1 SW 4 9 2 5 1012.4 1012.3 0.0
23/07:00pm 16.3 15.3 12.3 77 2.2 S 9 13 5 7 1011.6 1011.5 0.0
23/06:30pm 16.7 15.4 12.5 76 2.3 S 11 15 6 8 1011.7 1011.6 0.0
23/06:00pm 17.2 16.7 12.7 75 2.5 S 7 15 4 8 1012.1 1012.0 0.0
23/05:30pm 17.6 16.0 12.7 73 2.7 WNW 13 17 7 9 1012.5 1012.4 0.0
23/05:00pm 18.3 16.7 12.7 70 3.1 WNW 13 17 7 9 1012.6 1012.5 0.0
23/04:30pm 18.4 17.0 13.3 72 2.9 WNW 13 20 7 11 1012.4 1012.3 0.0
23/04:00pm 18.7 17.3 13.3 71 3.1 NW 13 22 7 12 1012.2 1012.1 0.0
23/03:30pm 18.0 16.2 13.3 74 2.7 W 15 24 8 13 1012.5 1012.4 0.0
23/03:00pm 16.8 14.0 12.5 76 2.4 W 19 24 10 13 1012.3 1012.2 0.0
23/02:30pm 18.8 16.7 13.6 72 3.0 WNW 17 22 9 12 1012.0 1011.9 0.0
23/02:00pm 18.3 17.2 13.0 71 3.0 NW 11 17 6 9 1012.3 1012.2 0.0
23/01:30pm 17.1 15.2 13.0 77 2.3 W 15 20 8 11 1012.3 1012.2 0.0
23/01:00pm 17.9 16.0 13.0 73 2.8 WNW 15 22 8 12 1012.0 1011.9 0.0
23/12:30pm 16.5 13.2 12.8 79 2.1 W 22 28 12 15 1012.4 1012.3 0.0
23/12:00pm 17.1 14.4 13.4 79 2.1 W 20 26 11 14 1012.7 1012.6 0.0
23/11:30am 16.5 13.6 12.8 79 2.1 W 20 24 11 13 1012.7 1012.6 0.0
23/11:00am 16.5 14.4 12.3 76 2.3 W 15 19 8 10 1012.7 1012.6 0.0
23/10:30am 17.7 16.2 13.0 74 2.6 W 13 19 7 10 1012.8 1012.7 0.0
23/10:00am 17.7 15.8 13.0 74 2.6 WNW 15 20 8 11 1013.1 1013.0 0.0
23/09:30am 16.8 15.1 13.5 81 1.9 W 15 19 8 10 1013.1 1013.0 0.0
23/09:00am 16.9 15.2 13.6 81 1.9 NNW 15 20 8 11 1013.1 1013.0 0.0
23/08:30am 16.2 14.8 13.5 84 1.5 NW 13 17 7 9 1012.6 1012.5 0.0
23/08:00am 15.7 14.4 13.7 88 1.1 NW 13 17 7 9 1012.2 1012.1 0.0
23/07:30am 15.1 14.3 14.0 93 0.6 NW 11 17 6 9 1011.8 1011.7 0.0
23/07:00am 13.8 13.0 13.0 95 0.4 NW 9 13 5 7 1011.6 1011.5 0.0
23/06:30am 12.4 10.8 11.6 95 0.4 NNW 11 11 6 6 1011.3 1011.2 0.0
23/06:00am 12.0 10.7 11.1 94 0.5 NW 9 15 5 8 1011.1 1011.0 0.0
23/05:30am 11.3 9.3 10.2 93 0.6 NNW 11 13 6 7 1010.9 1010.8 0.0
23/05:00am 11.4 9.8 10.3 93 0.6 NW 9 13 5 7 1010.7 1010.6 0.0
23/04:30am 11.7 9.8 10.4 92 0.7 NW 11 13 6 7 1010.5 1010.4 0.0
23/04:00am 11.9 9.6 10.6 92 0.7 NW 13 15 7 8 1010.3 1010.2 0.0
23/03:30am 12.3 10.5 10.7 90 0.8 NW 11 13 6 7 1010.4 1010.3 0.0
23/03:00am 13.6 12.1 11.8 89 1.0 WNW 11 15 6 8 1010.3 1010.2 0.0
23/02:30am 14.5 12.9 12.7 89 1.0 W 13 17 7 9 1010.5 1010.4 0.0
23/02:00am 14.8 12.4 12.8 88 1.1 W 17 22 9 12 1010.7 1010.6 0.0
23/01:30am 14.9 12.2 12.9 88 1.1 W 19 26 10 14 1010.9 1010.8 0.0
23/01:00am 15.2 12.2 13.6 90 0.9 W 22 28 12 15 1010.9 1010.8 0.0
23/12:30am 15.0 13.2 13.2 89 1.0 W 15 20 8 11 1010.8 1010.7 0.0
23/12:00am 14.9 13.0 13.1 89 1.0 W 15 19 8 10 1010.6 1010.5 0.0
 
Date/Time
EDT
Temp
°C
App
Temp
°C
Dew
Point
Rel
Hum
%
Delta-T
°C
Wind Press
QNH
hPa
Press
MSL
hPa
Rain
since 9 am
mm
Dir
 
Spd
km/h
Gust
km/h
Spd
kts
Gust
kts
22/11:30pm 15.3 12.4 12.8 85 1.4 W 20 26 11 14 1010.5 1010.4 0.0
22/11:00pm 15.2 12.3 12.9 86 1.3 W 20 28 11 15 1010.5 1010.4 0.0
22/10:30pm 15.3 13.9 13.3 88 1.1 W 13 24 7 13 1010.3 1010.2 0.0
22/10:00pm 15.3 12.2 13.3 88 1.1 W 22 30 12 16 1009.7 1009.6 0.0
22/09:30pm 15.5 12.2 13.9 90 0.9 W 24 30 13 16 1009.1 1009.0 0.0
22/09:00pm 15.7 13.3 14.4 92 0.7 W 20 32 11 17 1008.6 1008.5 0.0
22/08:30pm 15.8 13.3 14.2 90 0.9 W 20 28 11 15 1008.0 1007.9 0.0
22/08:00pm 16.1 14.5 13.9 87 1.2 NNE 15 24 8 13 1007.3 1007.2 0.0
22/07:30pm 16.5 14.6 14.2 86 1.3 NW 17 28 9 15 1006.8 1006.7 0.0
22/07:00pm 16.8 12.8 14.1 84 1.5 W 28 37 15 20 1006.6 1006.5 0.0
22/06:30pm 17.1 12.2 14.4 84 1.6 W 33 46 18 25 1006.3 1006.2 0.0
22/06:00pm 17.6 12.4 14.5 82 1.8 W 35 54 19 29 1005.6 1005.5 0.0
22/05:51pm 17.8 13.2 14.5 81 1.9 W 32 50 17 27 1005.6 1005.5 0.0
22/05:30pm 18.2 13.9 14.5 79 2.1 W 30 44 16 24 1005.1 1005.0 0.0
22/05:16pm 18.8 14.4 14.1 74 2.7 W 30 48 16 26 1005.1 1005.0 0.0
22/05:00pm 19.8 13.9 14.6 72 3.0 WNW 39 50 21 27 1004.9 1004.8 0.0
22/04:50pm 19.4 13.2 13.8 70 3.2 WNW 39 57 21 31 1004.8 1004.7 0.0
22/04:30pm 20.5 15.5 13.9 66 3.8 WNW 33 43 18 23 1004.4 1004.3 0.0
22/04:00pm 21.1 15.5 13.3 61 4.5 WNW 35 48 19 26 1004.2 1004.1 0.0
22/03:30pm 22.4 18.2 13.5 57 5.2 WNW 28 39 15 21 1004.4 1004.3 0.0
22/03:00pm 22.3 19.2 13.4 57 5.2 WNW 22 35 12 19 1004.4 1004.3 0.0
22/02:30pm 24.0 21.1 14.1 54 5.8 WNW 22 39 12 21 1004.4 1004.3 0.0
22/02:00pm 24.6 22.1 14.1 52 6.2 WNW 20 32 11 17 1004.4 1004.3 0.0
22/01:48pm 24.2 21.0 13.1 50 6.4 WNW 22 32 12 17 1004.5 1004.4 0.0
22/01:30pm 29.2 22.8 10.8 32 10.5 NW 35 52 19 28 1004.5 1004.4 0.0
22/01:05pm 29.9 23.6 10.9 31 10.9 NNW 35 54 19 29 1004.6 1004.5 0.0
22/01:00pm 29.6 22.9 9.7 29 11.2 NNW 35 52 19 28 1004.6 1004.5 0.0
22/12:35pm 28.2 22.1 9.9 32 10.3 NNW 32 52 17 28 1004.9 1004.8 0.0
22/12:30pm 28.9 23.3 10.1 31 10.6 NNW 30 46 16 25 1005.0 1004.9 0.0
22/12:04pm 28.4 22.7 11.0 34 9.9 NNW 32 50 17 27 1005.1 1005.0 0.0
22/12:00pm 28.0 22.5 12.0 37 9.3 NNW 32 48 17 26 1005.2 1005.1 0.0
22/11:30am 26.0 20.7 11.4 40 8.3 N 30 48 16 26 1005.3 1005.2 0.0
22/11:01am 24.2 18.4 10.8 43 7.5 N 32 50 17 27 1005.4 1005.3 0.0
22/11:00am 24.4 19.3 12.0 46 7.1 N 30 44 16 24 1005.5 1005.4 0.0
22/10:33am 22.8 17.2 11.5 49 6.3 N 32 54 17 29 1005.8 1005.7 0.0
22/10:30am 22.6 17.1 12.0 51 6.0 N 32 46 17 25 1006.0 1005.9 0.0
22/10:22am 22.0 17.2 11.7 52 5.8 N 28 46 15 25 1006.1 1006.0 0.0
22/10:00am 20.0 15.2 11.7 59 4.6 N 28 41 15 22 1006.2 1006.1 0.0
22/09:30am 17.6 13.0 11.2 66 3.5 N 26 39 14 21 1006.7 1006.6 0.0
22/09:01am 15.7 10.8 11.3 75 2.4 N 28 46 15 25 1006.8 1006.7 0.0
22/09:00am 15.8 11.0 11.6 76 2.3 N 28 44 15 24 1006.7 1006.6 1.4
22/08:30am 14.8 10.1 11.9 83 1.6 NNE 28 41 15 22 1006.5 1006.4 1.4
22/08:00am 14.0 10.3 12.7 92 0.7 NE 24 32 13 17 1006.3 1006.2 1.4
22/07:30am 14.2 10.7 13.4 95 0.4 NE 24 35 13 19 1006.6 1006.5 1.4
22/07:00am 13.6 10.7 12.8 95 0.4 NE 20 32 11 17 1006.5 1006.4 1.4
22/06:30am 13.4 9.6 12.5 94 0.5 NE 24 28 13 15 1007.3 1007.2 1.4
22/06:00am 13.9 12.0 13.0 94 0.5 N 15 19 8 10 1008.7 1008.6 0.8
22/05:30am 14.1 12.2 13.0 93 0.6 N 15 19 8 10 1009.1 1009.0 0.4
22/05:00am 14.0 11.6 12.7 92 0.7 NNE 17 22 9 12 1008.1 1008.0 0.2
22/04:30am 14.0 13.1 12.7 92 0.7 E 9 13 5 7 1008.6 1008.5 0.2
22/04:00am 13.9 13.5 12.3 90 0.9 NE 6 9 3 5 1009.4 1009.3 0.2
22/03:30am 14.4 13.2 12.8 90 0.9 W 11 13 6 7 1010.8 1010.7 0.2
22/03:00am 14.4 13.2 12.8 90 0.9 WNW 11 13 6 7 1011.0 1010.9 0.0
22/02:30am 14.6 13.7 12.6 88 1.1 NNE 9 20 5 11 1010.2 1010.1 0.0
22/02:17am 14.3 12.9 12.2 87 1.1 NW 11 20 6 11 1010.7 1010.6 0.0
22/02:00am 13.9 10.3 11.9 88 1.1 NNE 22 30 12 16 1008.7 1008.6 0.0
22/01:30am 13.7 11.0 11.7 88 1.1 NE 17 28 9 15 1008.8 1008.7 0.0
22/01:00am 13.2 9.8 11.1 87 1.1 NNE 20 28 11 15 1009.7 1009.6 0.0
22/12:30am 12.9 10.3 10.8 87 1.1 NNE 15 19 8 10 1010.1 1010.0 0.0
22/12:00am 12.7 10.5 10.8 88 1.0 NNE 13 17 7 9 1010.5 1010.4 0.0
 
Date/Time
EDT
Temp
°C
App
Temp
°C
Dew
Point
Rel
Hum
%
Delta-T
°C
Wind Press
QNH
hPa
Press
MSL
hPa
Rain
since 9 am
mm
Dir
 
Spd
km/h
Gust
km/h
Spd
kts
Gust
kts
21/11:30pm 12.3 9.9 10.2 87 1.1 N 13 15 7 8 1011.2 1011.1 0.0
21/11:00pm 12.5 10.5 10.0 85 1.3 N 11 13 6 7 1011.5 1011.4 0.0
21/10:30pm 13.3 11.8 10.5 83 1.5 N 9 11 5 6 1011.5 1011.4 0.0
21/10:00pm 13.9 12.9 10.9 82 1.6 NW 7 11 4 6 1011.8 1011.7 0.0
21/09:30pm 14.6 13.0 11.6 82 1.6 WNW 11 17 6 9 1011.8 1011.7 0.0
21/09:00pm 14.9 12.1 11.3 79 1.9 WNW 17 20 9 11 1011.6 1011.5 0.0
21/08:30pm 15.2 11.9 11.6 79 1.9 W 20 28 11 15 1011.7 1011.6 0.0
21/08:00pm 15.7 12.4 11.7 77 2.2 W 20 28 11 15 1011.6 1011.5 0.0
21/07:30pm 16.2 13.2 11.8 75 2.4 W 19 32 10 17 1011.3 1011.2 0.0
21/07:00pm 16.3 12.3 11.7 74 2.5 W 24 35 13 19 1011.0 1010.9 0.0
21/06:30pm 16.6 13.3 11.5 72 2.8 W 20 28 11 15 1010.9 1010.8 0.0
21/06:00pm 17.1 13.9 12.0 72 2.8 W 20 28 11 15 1010.7 1010.6 0.0
21/05:30pm 17.5 14.9 12.0 70 3.0 W 17 26 9 14 1010.3 1010.2 0.0
21/05:00pm 17.4 14.6 11.2 67 3.4 W 17 24 9 13 1010.5 1010.4 0.0
21/04:30pm 17.3 14.6 11.6 69 3.1 W 17 24 9 13 1010.9 1010.8 0.0
21/04:00pm 16.5 12.5 10.6 68 3.1 W 22 26 12 14 1010.9 1010.8 0.0
21/03:30pm 16.6 12.5 10.2 66 3.4 W 22 30 12 16 1011.2 1011.1 0.0
21/03:00pm 16.6 12.2 10.5 67 3.2 W 24 32 13 17 1011.3 1011.2 0.0
21/02:30pm 15.9 11.6 9.3 65 3.4 W 22 28 12 15 1011.3 1011.2 0.0
21/02:00pm 16.0 12.7 9.7 66 3.3 W 17 22 9 12 1011.5 1011.4 0.0
21/01:30pm 16.0 12.0 9.2 64 3.5 W 20 24 11 13 1011.8 1011.7 0.0
21/01:00pm 16.3 13.4 9.7 65 3.5 W 15 22 8 12 1012.0 1011.9 0.0
21/12:30pm 16.5 12.7 9.7 64 3.6 W 20 26 11 14 1012.1 1012.0 0.0
21/12:00pm 16.7 14.4 10.3 66 3.4 W 13 20 7 11 1012.2 1012.1 0.0
21/11:30am 15.9 13.1 10.0 68 3.1 W 15 22 8 12 1012.3 1012.2 0.0
21/11:00am 15.5 12.2 9.4 67 3.2 W 17 24 9 13 1012.4 1012.3 0.0
21/10:30am 15.3 12.4 9.7 69 2.9 W 15 20 8 11 1012.2 1012.1 0.0
21/10:00am 14.7 11.3 9.1 69 2.9 W 17 24 9 13 1012.0 1011.9 0.0
21/09:30am 14.5 11.1 9.1 70 2.8 W 17 24 9 13 1011.9 1011.8 0.0
21/09:00am 13.9 9.3 8.1 68 2.9 W 22 32 12 17 1011.7 1011.6 7.6
21/08:30am 14.0 9.7 7.8 66 3.1 WNW 20 30 11 16 1011.4 1011.3 7.6
21/08:00am 13.4 7.8 7.2 66 3.0 W 26 37 14 20 1010.9 1010.8 7.6
21/07:30am 12.9 7.4 7.4 69 2.7 W 26 35 14 19 1010.4 1010.3 7.6
21/07:00am 12.9 8.5 7.4 69 2.7 NW 20 30 11 16 1009.7 1009.6 7.6
21/06:30am 13.2 7.9 8.5 73 2.4 WNW 26 39 14 21 1010.1 1010.0 7.6
21/06:00am 13.4 6.4 8.3 71 2.5 W 35 46 19 25 1009.9 1009.8 7.6
21/05:30am 13.1 7.6 9.2 77 2.0 WNW 28 41 15 22 1009.3 1009.2 7.6
21/05:00am 13.5 8.7 10.3 81 1.7 W 26 37 14 20 1008.9 1008.8 7.6
21/04:30am 13.2 9.1 10.0 81 1.7 W 22 32 12 17 1008.3 1008.2 7.6
21/04:00am 13.1 9.6 10.1 82 1.6 WNW 19 28 10 15 1008.0 1007.9 7.6
21/03:30am 13.0 8.9 10.0 82 1.5 WNW 22 33 12 18 1008.0 1007.9 7.6
21/03:00am 13.3 8.5 10.3 82 1.6 W 26 37 14 20 1008.2 1008.1 7.6
21/02:30am 13.4 8.1 11.1 86 1.2 W 30 39 16 21 1008.1 1008.0 7.4
21/02:00am 13.3 10.3 11.9 91 0.8 WNW 19 28 10 15 1008.1 1008.0 7.4
21/01:30am 12.6 9.9 11.7 94 0.5 N 17 26 9 14 1008.1 1008.0 7.4
21/01:00am 13.1 10.1 11.8 92 0.7 NNW 19 26 10 14 1008.0 1007.9 7.4
21/12:30am 13.3 9.9 12.5 95 0.4 NW 22 35 12 19 1007.9 1007.8 7.4
21/12:00am 13.9 11.1 13.3 96 0.3 NW 20 35 11 19 1007.6 1007.5 7.4
 
Date/Time
EDT
Temp
°C
App
Temp
°C
Dew
Point
Rel
Hum
%
Delta-T
°C
Wind Press
QNH
hPa
Press
MSL
hPa
Rain
since 9 am
mm
Dir
 
Spd
km/h
Gust
km/h
Spd
kts
Gust
kts
20/11:30pm 14.3 10.5 13.5 95 0.4 W 26 35 14 19 1007.5 1007.4 7.2
20/11:00pm 14.7 9.6 13.6 93 0.6 W 33 43 18 23 1007.4 1007.3 7.2
20/10:30pm 15.0 10.0 13.5 91 0.8 W 32 41 17 22 1006.9 1006.8 7.2
20/10:00pm 15.0 10.8 13.4 90 0.9 W 28 41 15 22 1006.5 1006.4 7.2
20/09:30pm 15.1 11.8 14.0 93 0.6 W 24 37 13 20 1006.0 1005.9 7.2
20/09:00pm 15.3 11.4 14.3 94 0.6 WNW 28 39 15 21 1005.6 1005.5 7.2

Other Formats:

Comma delimited format used in spreadsheet applications
http://www.bom.gov.au/fwo/IDV60801/IDV60801.94826.axf

JavaScript Object Notation format (JSON) in row-major order
http://www.bom.gov.au/fwo/IDV60801/IDV60801.94826.json